createdAt,value
2019-05-22T00:01:25.249Z,84.10
2019-05-22T00:03:58.748Z,84.40
2019-05-22T00:06:29.135Z,84.30
2019-05-22T00:08:58.640Z,84.20
2019-05-22T00:11:29.322Z,84.40
2019-05-22T00:13:59.735Z,84.50
2019-05-22T00:16:30.117Z,84.40
2019-05-22T00:18:59.113Z,84.10
2019-05-22T00:21:28.168Z,84.30
2019-05-22T00:23:57.278Z,83.80
2019-05-22T00:26:26.735Z,83.50
2019-05-22T00:28:56.443Z,83.20
2019-05-22T00:31:25.455Z,83.00
2019-05-22T00:33:55.763Z,82.80
2019-05-22T00:36:24.489Z,83.00
2019-05-22T00:38:54.690Z,83.10
2019-05-22T00:41:24.512Z,83.20
2019-05-22T00:43:53.318Z,82.60
2019-05-22T00:46:23.800Z,83.00
2019-05-22T00:48:54.407Z,82.70
2019-05-22T00:51:36.867Z,83.10
2019-05-22T00:54:25.390Z,83.10
2019-05-22T00:56:56.359Z,83.10
2019-05-22T00:59:42.443Z,83.20
2019-05-22T01:02:14.216Z,82.70
2019-05-22T01:04:43.445Z,81.80
2019-05-22T01:07:18.351Z,82.00
2019-05-22T01:09:52.618Z,81.70
2019-05-22T01:12:28.989Z,82.00
2019-05-22T01:15:04.435Z,81.30
2019-05-22T01:17:36.571Z,80.70
2019-05-22T01:20:07.909Z,80.00
2019-05-22T01:22:37.143Z,80.00
2019-05-22T01:25:06.776Z,81.10
2019-05-22T01:27:36.573Z,81.40
2019-05-22T01:30:08.529Z,81.80
2019-05-22T01:32:43.160Z,82.20
2019-05-22T01:35:13.858Z,82.10
2019-05-22T01:37:44.352Z,81.40
2019-05-22T01:40:20.080Z,81.90
2019-05-22T01:42:51.927Z,81.70
2019-05-22T01:45:22.418Z,81.50
2019-05-22T01:47:54.083Z,81.60
2019-05-22T01:50:47.987Z,81.60
2019-05-22T01:53:20.159Z,82.30
2019-05-22T01:55:51.829Z,81.20
2019-05-22T01:58:21.741Z,80.90
2019-05-22T02:00:55.629Z,81.10
2019-05-22T02:03:25.165Z,80.80
2019-05-22T02:05:55.169Z,80.30
2019-05-22T02:08:28.144Z,80.10
2019-05-22T02:11:00.027Z,80.70
2019-05-22T02:13:42.154Z,81.00
2019-05-22T02:16:11.448Z,82.40
2019-05-22T02:18:41.983Z,81.80
2019-05-22T02:21:12.400Z,82.60
2019-05-22T02:23:42.883Z,81.10
2019-05-22T02:26:13.480Z,80.90
2019-05-22T02:28:43.368Z,80.80
2019-05-22T02:31:15.076Z,80.80
2019-05-22T02:34:01.394Z,78.40
2019-05-22T02:36:30.820Z,77.60
2019-05-22T02:39:01.167Z,76.40
2019-05-22T02:41:34.468Z,75.80
2019-05-22T02:44:03.382Z,76.70
2019-05-22T02:46:32.099Z,75.90
2019-05-22T02:49:02.002Z,75.90
2019-05-22T02:51:30.936Z,75.60
2019-05-22T02:54:00.175Z,75.10
2019-05-22T02:56:29.323Z,74.40
2019-05-22T02:58:58.826Z,74.20
2019-05-22T03:01:28.111Z,73.40
2019-05-22T03:03:56.942Z,73.00
2019-05-22T03:06:26.147Z,72.70
2019-05-22T03:08:58.391Z,72.50
2019-05-22T03:11:32.871Z,71.30
2019-05-22T03:14:03.446Z,70.50
2019-05-22T03:16:44.392Z,70.60
2019-05-22T03:19:15.358Z,70.80
2019-05-22T03:21:44.455Z,70.50
2019-05-22T03:24:13.293Z,70.40
2019-05-22T03:26:48.525Z,70.10
2019-05-22T03:29:17.922Z,70.60
2019-05-22T03:31:46.661Z,70.30
2019-05-22T03:34:16.462Z,70.10
2019-05-22T03:36:45.773Z,69.70
2019-05-22T03:39:16.136Z,70.00
2019-05-22T03:41:45.564Z,69.80
2019-05-22T03:44:15.858Z,69.60
2019-05-22T03:46:48.554Z,69.60
2019-05-22T03:49:30.000Z,69.40
2019-05-22T03:51:52.157Z,69.40
2019-05-22T03:54:21.874Z,69.10
2019-05-22T03:56:50.584Z,68.70
2019-05-22T03:59:20.099Z,68.00
2019-05-22T04:01:48.990Z,67.60
2019-05-22T04:04:21.325Z,67.10
2019-05-22T04:06:52.411Z,66.40
2019-05-22T04:09:23.468Z,66.90
2019-05-22T04:11:53.666Z,66.80
2019-05-22T04:14:25.348Z,66.30
2019-05-22T04:16:54.807Z,66.70
2019-05-22T04:19:23.545Z,66.70
2019-05-22T04:21:52.529Z,66.70
2019-05-22T04:24:21.554Z,66.70
2019-05-22T04:26:50.316Z,65.70
2019-05-22T04:29:19.522Z,66.20
2019-05-22T04:31:52.260Z,66.00
2019-05-22T04:34:21.081Z,66.40
2019-05-22T04:36:50.887Z,66.50
2019-05-22T04:39:25.844Z,65.80
2019-05-22T04:41:57.277Z,64.30
2019-05-22T04:44:26.512Z,63.70
2019-05-22T04:46:56.115Z,63.90
2019-05-22T04:49:25.433Z,65.40
2019-05-22T04:51:54.740Z,66.60
2019-05-22T04:54:23.766Z,66.60
2019-05-22T04:56:53.518Z,67.30
2019-05-22T04:59:22.909Z,68.70
2019-05-22T05:01:51.642Z,69.70
2019-05-22T05:04:20.373Z,70.20
2019-05-22T05:06:49.952Z,69.60
2019-05-22T05:09:19.638Z,69.70
2019-05-22T05:11:48.550Z,71.10
2019-05-22T05:14:17.475Z,71.20
2019-05-22T05:16:46.912Z,70.60
2019-05-22T05:19:15.599Z,70.00
2019-05-22T05:21:44.481Z,69.00
2019-05-22T05:24:13.401Z,69.70
2019-05-22T05:26:43.499Z,71.40
2019-05-22T05:29:26.229Z,71.30
2019-05-22T05:31:55.264Z,71.40
2019-05-22T05:34:35.896Z,71.80
2019-05-22T05:37:06.923Z,72.80
2019-05-22T05:39:40.068Z,74.20
2019-05-22T05:42:09.056Z,74.80
2019-05-22T05:44:38.325Z,74.60
2019-05-22T05:47:07.450Z,74.60
2019-05-22T05:49:36.723Z,74.10
2019-05-22T05:52:07.228Z,74.40
2019-05-22T05:54:36.523Z,74.10
2019-05-22T05:57:38.492Z,74.50
2019-05-22T06:00:11.072Z,76.50
2019-05-22T06:02:54.046Z,79.70
2019-05-22T06:05:10.901Z,78.40
2019-05-22T06:07:40.267Z,77.90
2019-05-22T06:10:30.077Z,79.50
2019-05-22T06:12:58.970Z,80.20
2019-05-22T06:15:47.573Z,79.30
2019-05-22T06:18:18.601Z,80.40
2019-05-22T06:21:02.731Z,80.20
2019-05-22T06:23:27.473Z,78.70
2019-05-22T06:25:58.701Z,79.90
2019-05-22T06:28:30.742Z,77.60
2019-05-22T06:31:01.941Z,78.80
2019-05-22T06:33:34.980Z,78.70
2019-05-22T06:36:09.851Z,78.90
2019-05-22T06:38:50.390Z,78.00
2019-05-22T06:41:20.188Z,79.30
2019-05-22T06:44:11.404Z,78.70
2019-05-22T06:46:45.523Z,76.70
2019-05-22T06:49:31.953Z,79.40
2019-05-22T06:52:00.956Z,79.10
2019-05-22T06:54:29.691Z,75.40
2019-05-22T06:56:58.406Z,74.70
2019-05-22T06:59:27.456Z,75.60
2019-05-22T07:02:01.273Z,75.60
2019-05-22T07:04:29.168Z,76.50
2019-05-22T07:06:58.745Z,77.80
2019-05-22T07:09:29.276Z,77.20
2019-05-22T07:11:58.576Z,79.90
2019-05-22T07:14:27.311Z,77.60
2019-05-22T07:16:56.120Z,78.20
2019-05-22T07:19:25.244Z,81.40
2019-05-22T07:21:54.675Z,81.70
2019-05-22T07:24:23.976Z,82.90
2019-05-22T07:26:53.543Z,82.40
2019-05-22T07:29:22.660Z,84.10
2019-05-22T07:31:51.964Z,83.20
2019-05-22T07:34:20.872Z,83.50
2019-05-22T07:36:49.613Z,83.20
2019-05-22T07:39:18.447Z,83.60
2019-05-22T07:41:47.191Z,83.80
2019-05-22T07:44:15.934Z,83.20
2019-05-22T07:46:45.086Z,80.80
2019-05-22T07:49:15.039Z,80.00
2019-05-22T07:51:54.037Z,76.30
2019-05-22T07:54:16.097Z,76.90
2019-05-22T07:56:44.875Z,76.80
2019-05-22T07:59:13.709Z,74.60
2019-05-22T08:01:42.739Z,71.10
2019-05-22T08:04:12.898Z,72.00
2019-05-22T08:06:41.689Z,70.90
2019-05-22T08:09:10.923Z,68.70
2019-05-22T08:11:39.923Z,67.20
2019-05-22T08:14:11.227Z,68.50
2019-05-22T08:16:40.231Z,68.20
2019-05-22T08:19:09.840Z,68.50
2019-05-22T08:21:38.736Z,68.10
2019-05-22T08:24:07.981Z,66.60
2019-05-22T08:26:53.246Z,67.90
2019-05-22T08:29:08.747Z,66.00
2019-05-22T08:31:40.489Z,65.40
2019-05-22T08:34:09.540Z,65.50
2019-05-22T08:36:38.908Z,66.30
2019-05-22T08:39:08.821Z,65.50
2019-05-22T08:41:43.502Z,66.10
2019-05-22T08:44:16.917Z,63.10
2019-05-22T08:46:44.996Z,64.20
2019-05-22T08:49:14.237Z,62.90
2019-05-22T08:51:43.018Z,63.60
2019-05-22T08:54:12.891Z,59.90
2019-05-22T08:56:44.630Z,59.00
2019-05-22T08:59:19.659Z,57.10
2019-05-22T09:04:31.221Z,52.60
2019-05-22T09:07:00.346Z,51.60
2019-05-22T09:09:29.282Z,51.90
2019-05-22T09:11:58.305Z,50.90
2019-05-22T09:14:27.334Z,48.40
2019-05-22T09:16:56.159Z,46.60
2019-05-22T09:19:24.891Z,45.50
2019-05-22T09:21:53.811Z,45.20
2019-05-22T09:24:26.021Z,44.70
2019-05-22T09:26:55.151Z,43.60
2019-05-22T09:29:23.987Z,41.80
2019-05-22T09:31:52.734Z,41.20
2019-05-22T09:34:21.713Z,41.00
2019-05-22T09:36:50.428Z,39.30
2019-05-22T09:39:19.845Z,38.60
2019-05-22T09:41:48.522Z,38.00
2019-05-22T09:44:17.463Z,36.40
2019-05-22T09:46:46.475Z,37.00
2019-05-22T09:49:15.557Z,36.20
2019-05-22T09:51:44.354Z,34.20
2019-05-22T09:54:13.792Z,35.90
2019-05-22T09:56:42.659Z,36.00
2019-05-22T09:59:11.401Z,35.30
2019-05-22T10:01:40.118Z,34.90
2019-05-22T10:04:09.424Z,34.60
2019-05-22T10:06:38.176Z,34.00
2019-05-22T10:09:08.496Z,35.30
2019-05-22T10:11:37.695Z,36.20
2019-05-22T10:14:07.305Z,36.20
2019-05-22T10:16:36.136Z,37.10
2019-05-22T10:19:05.226Z,37.60
2019-05-22T10:21:34.264Z,37.50
2019-05-22T10:24:03.459Z,38.30
2019-05-22T10:26:32.477Z,38.80
2019-05-22T10:29:01.331Z,39.80
2019-05-22T10:31:30.835Z,39.60
2019-05-22T10:34:00.630Z,39.00
2019-05-22T10:36:29.793Z,38.80
2019-05-22T10:38:58.723Z,38.00
2019-05-22T10:41:27.724Z,37.10
2019-05-22T10:43:56.639Z,37.20
2019-05-22T10:46:25.915Z,35.70
2019-05-22T10:48:54.711Z,35.00
2019-05-22T10:51:23.500Z,35.30
2019-05-22T10:53:52.309Z,34.60
2019-05-22T10:56:21.085Z,35.80
2019-05-22T10:58:50.211Z,36.90
2019-05-22T11:01:19.129Z,36.10
2019-05-22T11:03:47.923Z,36.40
2019-05-22T11:06:16.714Z,36.10
2019-05-22T11:08:46.285Z,35.10
2019-05-22T11:11:16.216Z,34.60
2019-05-22T11:14:00.131Z,33.00
2019-05-22T11:16:15.670Z,32.80
2019-05-22T11:18:44.500Z,33.10
2019-05-22T11:21:13.689Z,33.70
2019-05-22T11:23:51.824Z,33.80
2019-05-22T11:26:12.931Z,34.10
2019-05-22T11:28:43.421Z,33.30
2019-05-22T11:31:13.330Z,32.10
2019-05-22T11:33:42.369Z,31.40
2019-05-22T11:36:13.096Z,33.00
2019-05-22T11:38:41.998Z,32.60
2019-05-22T11:41:11.309Z,31.60
2019-05-22T11:43:40.651Z,32.10
2019-05-22T11:46:09.532Z,31.50
2019-05-22T11:48:38.428Z,31.10
2019-05-22T11:51:07.327Z,31.30
2019-05-22T11:53:36.856Z,31.40
2019-05-22T11:56:06.012Z,32.20
2019-05-22T11:58:34.753Z,31.60
2019-05-22T12:01:03.772Z,33.20
2019-05-22T12:03:34.177Z,32.30
2019-05-22T12:06:04.478Z,33.10
2019-05-22T12:08:33.305Z,34.40
2019-05-22T12:11:03.485Z,34.00
2019-05-22T12:13:32.674Z,34.80
2019-05-22T12:16:04.240Z,36.00
2019-05-22T12:18:33.220Z,36.50
2019-05-22T12:21:02.973Z,35.70
2019-05-22T12:23:32.767Z,35.60
2019-05-22T12:26:01.508Z,36.30
2019-05-22T12:28:30.351Z,40.20
2019-05-22T12:30:59.261Z,42.90
2019-05-22T12:33:28.386Z,42.60
2019-05-22T12:35:57.989Z,43.50
2019-05-22T12:38:27.783Z,44.50
2019-05-22T12:40:57.714Z,44.20
2019-05-22T12:43:30.612Z,45.30
2019-05-22T12:46:00.124Z,46.10
2019-05-22T12:48:29.834Z,46.30
2019-05-22T12:50:59.427Z,46.70
2019-05-22T12:53:29.568Z,47.70
2019-05-22T12:55:59.905Z,47.80
2019-05-22T12:58:28.973Z,48.10
2019-05-22T13:00:58.981Z,48.50
2019-05-22T13:03:28.527Z,48.30
2019-05-22T13:05:58.097Z,46.60
2019-05-22T13:08:27.184Z,45.30
2019-05-22T13:10:57.709Z,43.20
2019-05-22T13:13:26.922Z,42.10
2019-05-22T13:15:58.028Z,41.30
2019-05-22T13:18:27.990Z,39.50
2019-05-22T13:20:57.375Z,38.50
2019-05-22T13:23:30.705Z,38.20
2019-05-22T13:25:59.453Z,38.50
2019-05-22T13:28:30.410Z,38.10
2019-05-22T13:31:00.729Z,39.50
2019-05-22T13:33:31.238Z,40.10
2019-05-22T13:36:00.526Z,40.70
2019-05-22T13:38:29.324Z,41.70
2019-05-22T13:40:58.283Z,40.80
2019-05-22T13:43:27.546Z,41.20
2019-05-22T13:45:56.396Z,41.70
2019-05-22T13:48:25.736Z,41.90
2019-05-22T13:50:56.076Z,41.50
2019-05-22T13:53:25.333Z,40.50
2019-05-22T13:55:54.013Z,41.00
2019-05-22T13:58:25.239Z,41.20
2019-05-22T14:00:53.988Z,41.80
2019-05-22T14:03:23.077Z,41.60
2019-05-22T14:05:53.577Z,41.60
2019-05-22T14:08:23.308Z,42.20
2019-05-22T14:10:53.980Z,42.70
2019-05-22T14:13:25.676Z,43.70
2019-05-22T14:15:56.941Z,43.90
2019-05-22T14:18:25.092Z,44.50
2019-05-22T14:20:54.115Z,44.50
2019-05-22T14:23:23.108Z,45.30
2019-05-22T14:25:52.262Z,45.40
2019-05-22T14:28:22.718Z,44.60
2019-05-22T14:30:51.704Z,45.00
2019-05-22T14:33:20.440Z,45.80
2019-05-22T14:35:51.532Z,46.70
2019-05-22T14:38:20.961Z,46.60
2019-05-22T14:40:49.928Z,47.30
2019-05-22T14:43:19.190Z,47.00
2019-05-22T14:45:48.067Z,47.30
2019-05-22T14:48:16.976Z,47.70
2019-05-22T14:50:45.971Z,48.10
2019-05-22T14:53:15.301Z,48.30
2019-05-22T14:55:45.882Z,48.30
2019-05-22T14:58:16.453Z,48.40
2019-05-22T15:00:45.763Z,48.70
2019-05-22T15:03:15.017Z,48.80
2019-05-22T15:05:44.643Z,48.70
2019-05-22T15:08:13.469Z,49.20
2019-05-22T15:10:42.874Z,48.80
2019-05-22T15:13:11.701Z,49.80
2019-05-22T15:15:41.025Z,50.30
2019-05-22T15:18:11.062Z,50.40
2019-05-22T15:20:56.706Z,50.00
2019-05-22T15:23:26.025Z,50.60
2019-05-22T15:25:54.872Z,50.40
2019-05-22T15:28:26.786Z,50.60
2019-05-22T15:30:55.371Z,50.50
2019-05-22T15:33:24.766Z,49.80
2019-05-22T15:35:54.611Z,50.20
2019-05-22T15:38:23.928Z,50.70
2019-05-22T15:40:53.947Z,51.00
2019-05-22T15:43:25.003Z,50.50
2019-05-22T15:45:54.380Z,50.30
2019-05-22T15:48:30.265Z,49.80
2019-05-22T15:51:02.715Z,50.20
2019-05-22T15:53:33.587Z,50.40
2019-05-22T15:56:04.389Z,50.80
2019-05-22T15:58:35.002Z,50.30
2019-05-22T16:01:06.780Z,50.40
2019-05-22T16:03:35.543Z,50.30
2019-05-22T16:06:05.514Z,49.80
2019-05-22T16:08:34.630Z,49.90
2019-05-22T16:11:06.688Z,50.50
2019-05-22T16:13:37.176Z,48.30
2019-05-22T16:16:06.491Z,48.40
2019-05-22T16:18:36.295Z,48.30
2019-05-22T16:21:06.788Z,48.30
2019-05-22T16:23:37.517Z,48.10
2019-05-22T16:26:07.936Z,48.50
2019-05-22T16:28:39.561Z,48.60
2019-05-22T16:31:14.089Z,48.60
2019-05-22T16:33:43.850Z,48.20
2019-05-22T16:36:14.144Z,48.70
2019-05-22T16:38:44.552Z,49.40
2019-05-22T16:41:13.688Z,49.30
2019-05-22T16:43:49.619Z,48.70
2019-05-22T16:46:16.881Z,48.60
2019-05-22T16:48:48.724Z,48.60
2019-05-22T16:51:18.362Z,48.20
2019-05-22T16:53:52.148Z,48.60
2019-05-22T16:56:21.884Z,49.00
2019-05-22T16:58:51.493Z,48.60
2019-05-22T17:01:22.751Z,48.90
2019-05-22T17:03:53.927Z,48.90
2019-05-22T17:06:23.668Z,48.60
2019-05-22T17:08:53.793Z,48.60
2019-05-22T17:11:24.153Z,48.90
2019-05-22T17:13:55.145Z,48.60
2019-05-22T17:16:24.403Z,49.00
2019-05-22T17:18:53.443Z,49.20
2019-05-22T17:21:22.513Z,49.40
2019-05-22T17:23:51.978Z,49.40
2019-05-22T17:26:21.051Z,49.30
2019-05-22T17:28:50.210Z,50.10
2019-05-22T17:31:19.141Z,50.10
2019-05-22T17:33:48.080Z,50.30
2019-05-22T17:36:20.106Z,50.90
2019-05-22T17:38:49.118Z,52.10
2019-05-22T17:41:18.725Z,51.70
2019-05-22T17:43:47.743Z,51.50
2019-05-22T17:46:17.839Z,50.90
2019-05-22T17:48:47.344Z,50.90
2019-05-22T17:51:16.465Z,51.50
2019-05-22T17:53:45.481Z,51.80
2019-05-22T17:56:14.513Z,51.30
2019-05-22T17:58:43.371Z,51.70
2019-05-22T18:01:12.183Z,51.30
2019-05-22T18:03:41.401Z,51.80
2019-05-22T18:06:10.569Z,51.10
2019-05-22T18:08:39.360Z,51.50
2019-05-22T18:11:09.019Z,51.90
2019-05-22T18:13:49.694Z,52.40
2019-05-22T18:16:18.372Z,52.80
2019-05-22T18:18:47.191Z,53.10
2019-05-22T18:21:16.331Z,53.80
2019-05-22T18:23:45.055Z,54.00
2019-05-22T18:26:14.061Z,54.30
2019-05-22T18:28:43.015Z,54.80
2019-05-22T18:31:11.888Z,55.00
2019-05-22T18:33:40.696Z,55.20
2019-05-22T18:36:09.615Z,55.90
2019-05-22T18:38:38.416Z,56.70
2019-05-22T18:41:07.138Z,57.00
2019-05-22T18:43:36.643Z,57.40
2019-05-22T18:46:05.633Z,57.70
2019-05-22T18:48:34.464Z,58.30
2019-05-22T18:51:04.009Z,58.40
2019-05-22T18:53:32.999Z,58.70
2019-05-22T18:56:01.814Z,58.80
2019-05-22T18:58:30.721Z,59.00
2019-05-22T19:00:59.535Z,59.60
2019-05-22T19:03:28.466Z,59.70
2019-05-22T19:05:57.280Z,60.00
2019-05-22T19:08:26.188Z,60.70
2019-05-22T19:10:55.022Z,61.30
2019-05-22T19:13:23.775Z,61.60
2019-05-22T19:15:52.660Z,62.00
2019-05-22T19:18:21.543Z,62.30
2019-05-22T19:20:50.353Z,62.50
2019-05-22T19:23:19.085Z,62.80
2019-05-22T19:25:47.924Z,63.20
2019-05-22T19:28:16.655Z,63.30
2019-05-22T19:30:45.575Z,63.40
2019-05-22T19:33:15.171Z,63.80
2019-05-22T19:35:44.179Z,64.10
2019-05-22T19:38:13.439Z,64.40
2019-05-22T19:40:42.352Z,64.80
2019-05-22T19:43:11.893Z,65.10
2019-05-22T19:45:41.004Z,65.40
2019-05-22T19:48:10.076Z,65.80
2019-05-22T19:50:40.191Z,65.90
2019-05-22T19:53:18.619Z,66.20
2019-05-22T19:55:41.002Z,66.40
2019-05-22T19:58:10.685Z,66.90
2019-05-22T20:00:39.923Z,67.20
2019-05-22T20:03:08.716Z,67.90
2019-05-22T20:05:38.476Z,68.40
2019-05-22T20:08:07.762Z,68.70
2019-05-22T20:10:37.478Z,69.10
2019-05-22T20:13:06.493Z,69.40
2019-05-22T20:15:35.238Z,70.00
2019-05-22T20:18:05.207Z,70.50
2019-05-22T20:20:34.282Z,71.00
2019-05-22T20:23:04.262Z,71.40
2019-05-22T20:25:33.996Z,72.00
2019-05-22T20:28:03.637Z,72.40
2019-05-22T20:30:32.740Z,72.60
2019-05-22T20:33:01.545Z,72.90
2019-05-22T20:35:30.432Z,73.20
2019-05-22T20:38:00.584Z,73.30
2019-05-22T20:40:29.832Z,73.20
2019-05-22T20:42:59.376Z,73.20
2019-05-22T20:45:29.571Z,73.20
2019-05-22T20:48:11.734Z,73.20
2019-05-22T20:50:40.467Z,73.70
2019-05-22T20:53:10.992Z,73.60
2019-05-22T20:55:42.541Z,73.70
2019-05-22T20:58:13.788Z,73.90
2019-05-22T21:00:43.659Z,74.10
2019-05-22T21:03:13.373Z,73.90
2019-05-22T21:05:43.960Z,73.60
2019-05-22T21:08:13.468Z,73.20
2019-05-22T21:10:47.555Z,72.80
2019-05-22T21:13:16.880Z,73.00
2019-05-22T21:15:46.712Z,72.60
2019-05-22T21:18:17.279Z,72.30
2019-05-22T21:20:54.822Z,72.50
2019-05-22T21:23:19.520Z,72.70
2019-05-22T21:25:48.739Z,72.90
2019-05-22T21:28:18.920Z,73.30
2019-05-22T21:30:47.718Z,73.70
2019-05-22T21:33:17.248Z,73.70
2019-05-22T21:35:45.984Z,73.90
2019-05-22T21:38:16.480Z,73.80
2019-05-22T21:40:45.617Z,74.30
2019-05-22T21:43:15.403Z,74.40
2019-05-22T21:45:44.523Z,74.50
2019-05-22T21:48:13.639Z,74.90
2019-05-22T21:50:42.905Z,75.10
2019-05-22T21:53:12.606Z,75.30
2019-05-22T21:55:45.419Z,75.40
2019-05-22T21:58:12.933Z,75.80
2019-05-22T22:00:48.596Z,75.90
2019-05-22T22:03:19.465Z,76.80
2019-05-22T22:05:48.267Z,76.90
2019-05-22T22:08:16.983Z,77.10
2019-05-22T22:10:46.282Z,77.10
2019-05-22T22:13:15.201Z,77.10
2019-05-22T22:15:44.398Z,77.30
2019-05-22T22:18:13.231Z,77.60
2019-05-22T22:20:43.553Z,78.40
2019-05-22T22:23:14.655Z,79.20
2019-05-22T22:25:44.047Z,79.80
2019-05-22T22:28:15.694Z,79.80
2019-05-22T22:30:58.901Z,79.70
2019-05-22T22:33:31.384Z,79.80
2019-05-22T22:36:01.826Z,80.50
2019-05-22T22:38:32.921Z,80.20
2019-05-22T22:41:02.535Z,80.80
2019-05-22T22:43:33.068Z,81.10
2019-05-22T22:46:10.771Z,81.70
2019-05-22T22:48:40.569Z,82.10
2019-05-22T22:51:12.608Z,82.30
2019-05-22T22:53:43.704Z,81.60
2019-05-22T22:56:13.098Z,81.50
2019-05-22T22:58:42.495Z,81.40
2019-05-22T23:01:15.689Z,81.40
2019-05-22T23:03:47.900Z,81.30
2019-05-22T23:06:16.980Z,81.00
2019-05-22T23:08:47.872Z,80.80
2019-05-22T23:11:17.175Z,81.10
2019-05-22T23:13:46.079Z,81.60
2019-05-22T23:16:15.887Z,81.90
2019-05-22T23:19:02.576Z,82.60
2019-05-22T23:21:30.356Z,83.20
2019-05-22T23:23:58.552Z,83.30
2019-05-22T23:26:27.599Z,83.30
2019-05-22T23:28:56.375Z,83.70
2019-05-22T23:31:25.100Z,84.00
2019-05-22T23:33:53.838Z,84.20
2019-05-22T23:36:22.967Z,84.30
2019-05-22T23:38:52.383Z,84.30
2019-05-22T23:41:21.632Z,84.60
2019-05-22T23:43:50.931Z,85.00
2019-05-22T23:46:20.650Z,85.10
2019-05-22T23:48:49.579Z,85.60
2019-05-22T23:51:18.887Z,85.60
2019-05-22T23:53:48.579Z,85.70
2019-05-22T23:56:17.399Z,85.80
2019-05-22T23:58:52.913Z,86.90
